createdAt,value
2018-11-29T00:00:41.422Z,80.94
2018-11-29T00:01:41.417Z,80.84
2018-11-29T00:02:41.410Z,80.53
2018-11-29T00:03:41.395Z,80.94
2018-11-29T00:04:48.521Z,80.57
2018-11-29T00:06:23.939Z,80.63
2018-11-29T00:07:31.058Z,80.53
2018-11-29T00:09:05.465Z,80.84
2018-11-29T00:11:22.051Z,81.09
2018-11-29T00:12:30.654Z,80.98
2018-11-29T00:14:04.067Z,80.77
2018-11-29T00:15:12.689Z,80.77
2018-11-29T00:16:46.113Z,80.77
2018-11-29T00:17:54.722Z,80.77
2018-11-29T00:19:39.408Z,81.30
2018-11-29T00:20:49.048Z,80.77
2018-11-29T00:22:21.441Z,80.63
2018-11-29T00:24:30.544Z,80.77
2018-11-29T00:25:37.858Z,80.88
2018-11-29T00:27:13.583Z,80.88
2018-11-29T16:55:40.135Z,53.31
2018-11-29T16:57:00.985Z,57.64
2018-11-29T16:58:00.974Z,52.84
2018-11-29T16:59:00.968Z,49.72
2018-11-29T17:00:00.951Z,49.22
2018-11-29T17:01:00.944Z,49.19
2018-11-29T17:02:00.932Z,50.24
2018-11-29T17:03:00.919Z,49.53
2018-11-29T17:04:00.916Z,49.11
2018-11-29T17:05:00.903Z,48.80
2018-11-29T17:06:00.891Z,48.41
2018-11-29T17:07:00.875Z,48.41
2018-11-29T17:08:00.873Z,49.24
2018-11-29T17:09:00.868Z,49.14
2018-11-29T17:10:00.847Z,49.04
2018-11-29T17:11:00.832Z,48.41
2018-11-29T17:12:00.820Z,48.51
2018-11-29T17:13:00.814Z,48.61
2018-11-29T17:14:00.804Z,49.35
2018-11-29T17:15:00.793Z,49.24
2018-11-29T17:16:00.818Z,49.45
2018-11-29T17:17:00.775Z,48.93
2018-11-29T17:18:00.833Z,49.04
2018-11-29T17:19:00.749Z,48.64
2018-11-29T17:20:00.739Z,49.26
2018-11-29T17:21:00.738Z,48.85
2018-11-29T17:22:00.713Z,49.14
2018-11-29T17:23:00.704Z,48.74
2018-11-29T17:24:00.690Z,49.26
2018-11-29T17:25:00.725Z,49.48
2018-11-29T17:26:00.673Z,48.43
2018-11-29T17:27:00.657Z,49.05
2018-11-29T17:28:00.646Z,49.68
2018-11-29T17:29:00.643Z,48.85
2018-11-29T17:30:00.625Z,49.05
2018-11-29T17:31:00.619Z,48.74
2018-11-29T17:32:00.658Z,49.26
2018-11-29T17:33:00.662Z,48.54
2018-11-29T17:34:00.669Z,48.43
2018-11-29T17:35:00.626Z,48.22
2018-11-29T17:36:00.635Z,48.74
2018-11-29T17:37:00.591Z,48.43
2018-11-29T17:38:00.543Z,49.05
2018-11-29T17:39:00.531Z,48.85
2018-11-29T17:40:00.522Z,48.85
2018-11-29T17:41:00.514Z,48.95
2018-11-29T17:42:00.501Z,48.85
2018-11-29T17:43:00.488Z,48.85
2018-11-29T17:44:00.473Z,49.05
2018-11-29T17:45:00.474Z,48.54
2018-11-29T17:46:00.532Z,48.85
2018-11-29T17:47:00.453Z,48.95
2018-11-29T17:48:00.435Z,48.85
2018-11-29T17:49:00.422Z,48.95
2018-11-29T17:50:00.408Z,48.74
2018-11-29T17:51:00.395Z,48.43
2018-11-29T17:52:00.387Z,48.33
2018-11-29T17:53:00.380Z,48.03
2018-11-29T17:54:00.365Z,47.80
2018-11-29T17:55:00.352Z,48.22
2018-11-29T17:56:00.347Z,48.01
2018-11-29T17:57:00.338Z,47.80
2018-11-29T17:58:00.324Z,47.39
2018-11-29T17:59:00.314Z,47.80
2018-11-29T18:00:00.298Z,48.01
2018-11-29T18:01:00.286Z,47.30
2018-11-29T18:02:00.284Z,47.49
2018-11-29T18:03:00.271Z,47.70
2018-11-29T18:04:00.259Z,48.22
2018-11-29T18:05:00.248Z,48.43
2018-11-29T18:06:00.239Z,47.80
2018-11-29T18:07:00.232Z,46.99
2018-11-29T18:08:00.210Z,46.89
2018-11-29T18:09:00.211Z,47.60
2018-11-29T18:10:00.190Z,46.97
2018-11-29T18:11:00.183Z,47.70
2018-11-29T18:12:00.173Z,47.93
2018-11-29T18:13:00.156Z,48.11
2018-11-29T18:14:00.151Z,47.49
2018-11-29T18:15:00.139Z,47.60
2018-11-29T18:16:00.129Z,47.09
2018-11-29T18:17:00.114Z,46.97
2018-11-29T18:18:00.107Z,47.28
2018-11-29T18:19:00.094Z,47.41
2018-11-29T18:20:00.085Z,46.99
2018-11-29T18:21:00.081Z,47.20
2018-11-29T18:22:00.058Z,46.97
2018-11-29T18:23:00.057Z,47.41
2018-11-29T18:24:00.040Z,46.78
2018-11-29T18:25:00.031Z,47.20
2018-11-29T18:26:00.015Z,47.20
2018-11-29T18:27:00.005Z,47.30
2018-11-29T18:27:59.993Z,46.99
2018-11-29T18:28:59.990Z,47.20
2018-11-29T18:29:59.971Z,46.89
2018-11-29T18:30:59.966Z,46.86
2018-11-29T18:31:59.956Z,46.23
2018-11-29T18:32:59.938Z,46.99
2018-11-29T18:33:59.932Z,46.99
2018-11-29T18:34:59.917Z,47.20
2018-11-29T18:35:59.908Z,46.89
2018-11-29T18:36:59.904Z,46.57
2018-11-29T18:37:59.884Z,46.67
2018-11-29T18:38:59.881Z,46.78
2018-11-29T18:39:59.868Z,46.78
2018-11-29T18:40:59.860Z,46.26
2018-11-29T18:41:59.844Z,46.67
2018-11-29T18:42:59.857Z,46.89
2018-11-29T18:43:59.826Z,46.67
2018-11-29T18:44:59.815Z,46.57
2018-11-29T18:45:59.802Z,46.67
2018-11-29T18:46:59.790Z,46.89
2018-11-29T18:47:59.774Z,46.47
2018-11-29T18:48:59.767Z,46.99
2018-11-29T18:49:59.753Z,46.36
2018-11-29T18:50:59.742Z,46.15
2018-11-29T18:51:59.736Z,46.05
2018-11-29T18:52:59.730Z,46.67
2018-11-29T18:53:59.750Z,46.05
2018-11-29T18:54:59.702Z,45.95
2018-11-29T18:56:00.665Z,46.05
2018-11-29T18:56:59.681Z,45.73
2018-11-29T18:57:59.667Z,45.32
2018-11-29T18:58:59.658Z,45.32
2018-11-29T18:59:59.653Z,46.57
2018-11-29T19:00:59.637Z,46.05
2018-11-29T19:01:59.627Z,46.36
2018-11-29T19:02:59.617Z,46.05
2018-11-29T19:03:59.600Z,45.95
2018-11-29T19:04:59.590Z,45.95
2018-11-29T19:05:59.643Z,45.97
2018-11-29T19:06:59.573Z,45.65
2018-11-29T19:07:59.558Z,45.95
2018-11-29T19:08:59.553Z,46.05
2018-11-29T19:09:59.537Z,46.15
2018-11-29T19:10:59.530Z,45.84
2018-11-29T19:11:59.529Z,45.73
2018-11-29T19:12:59.520Z,45.53
2018-11-29T19:13:59.497Z,46.05
2018-11-29T19:14:59.480Z,45.84
2018-11-29T19:15:59.476Z,45.95
2018-11-29T19:16:59.483Z,46.05
2018-11-29T19:17:59.460Z,45.86
2018-11-29T19:18:59.442Z,45.63
2018-11-29T19:19:59.426Z,45.63
2018-11-29T19:20:59.477Z,45.65
2018-11-29T19:21:59.409Z,45.84
2018-11-29T19:22:59.395Z,45.63
2018-11-29T19:23:59.383Z,45.01
2018-11-29T19:24:59.374Z,45.63
2018-11-29T19:25:59.364Z,45.21
2018-11-29T19:26:59.356Z,45.63
2018-11-29T19:27:59.344Z,45.73
2018-11-29T19:28:59.339Z,45.63
2018-11-29T19:30:04.191Z,45.55
2018-11-29T19:31:00.312Z,45.32
2018-11-29T19:31:59.301Z,44.90
2018-11-29T19:32:59.372Z,45.34
2018-11-29T19:34:01.516Z,45.63
2018-11-29T19:34:59.263Z,46.15
2018-11-29T19:35:59.251Z,45.32
2018-11-29T19:36:59.242Z,45.13
2018-11-29T19:37:59.245Z,45.01
2018-11-29T19:39:00.093Z,45.73
2018-11-29T19:40:00.096Z,46.15
2018-11-29T19:40:59.204Z,46.07
2018-11-29T19:41:59.195Z,45.23
2018-11-29T19:42:59.181Z,44.82
2018-11-29T19:43:59.245Z,44.79
2018-11-29T19:44:59.155Z,45.65
2018-11-29T19:45:59.149Z,45.34
2018-11-29T19:46:59.138Z,44.90
2018-11-29T19:47:59.122Z,44.79
2018-11-29T19:48:59.113Z,45.21
2018-11-29T19:49:59.101Z,45.55
2018-11-29T19:50:59.092Z,45.11
2018-11-29T19:51:59.079Z,45.23
2018-11-29T19:52:59.073Z,44.82
2018-11-29T19:53:59.062Z,44.92
2018-11-29T19:54:59.051Z,45.23
2018-11-29T19:55:59.034Z,44.82
2018-11-29T19:56:59.025Z,45.34
2018-11-29T19:57:59.014Z,45.13
2018-11-29T19:58:59.007Z,45.34
2018-11-29T19:59:58.991Z,45.34
2018-11-29T20:00:58.985Z,45.03
2018-11-29T20:01:58.971Z,45.13
2018-11-29T20:02:58.964Z,44.82
2018-11-29T20:03:58.962Z,45.78
2018-11-29T20:04:58.946Z,45.55
2018-11-29T20:05:58.926Z,46.28
2018-11-29T20:06:58.916Z,45.13
2018-11-29T20:07:58.909Z,45.13
2018-11-29T20:08:58.894Z,45.67
2018-11-29T20:09:58.888Z,45.86
2018-11-29T20:10:58.876Z,45.76
2018-11-29T20:11:58.866Z,46.07
2018-11-29T20:12:58.850Z,45.34
2018-11-29T20:13:58.847Z,45.65
2018-11-29T20:14:58.829Z,45.65
2018-11-29T20:15:58.822Z,45.76
2018-11-29T20:16:58.806Z,46.07
2018-11-29T20:17:58.798Z,45.55
2018-11-29T20:18:58.785Z,45.86
2018-11-29T20:19:58.775Z,45.76
2018-11-29T20:20:58.767Z,45.86
2018-11-29T20:21:58.752Z,45.99
2018-11-29T20:22:58.741Z,46.20
2018-11-29T20:23:58.736Z,45.76
2018-11-29T20:24:58.722Z,45.97
2018-11-29T20:25:58.732Z,46.20
2018-11-29T20:26:58.699Z,45.99
2018-11-29T20:27:58.694Z,46.41
2018-11-29T20:28:58.676Z,45.99
2018-11-29T20:29:58.668Z,45.78
2018-11-29T20:30:58.684Z,46.09
2018-11-29T20:31:58.652Z,46.09
2018-11-29T20:32:58.633Z,45.78
2018-11-29T20:33:58.622Z,45.36
2018-11-29T20:34:58.615Z,46.41
2018-11-29T20:35:58.600Z,46.09
2018-11-29T20:36:58.594Z,46.09
2018-11-29T20:37:58.579Z,46.09
2018-11-29T20:38:58.569Z,46.61
2018-11-29T20:39:58.556Z,47.24
2018-11-29T20:40:58.545Z,47.66
2018-11-29T20:41:58.536Z,47.66
2018-11-29T20:42:58.530Z,46.93
2018-11-29T20:43:58.521Z,46.41
2018-11-29T20:44:58.506Z,46.41
2018-11-29T20:45:58.492Z,46.51
2018-11-29T20:46:58.486Z,46.72
2018-11-29T20:47:58.475Z,46.30
2018-11-29T20:48:58.475Z,46.09
2018-11-29T20:49:58.463Z,47.03
2018-11-29T20:50:58.438Z,47.55
2018-11-29T20:51:58.427Z,46.09
2018-11-29T20:52:58.420Z,46.41
2018-11-29T20:53:58.404Z,46.72
2018-11-29T20:54:58.393Z,46.51
2018-11-29T20:55:58.388Z,46.83
2018-11-29T20:56:58.372Z,46.93
2018-11-29T20:57:58.363Z,46.93
2018-11-29T20:58:58.350Z,46.72
2018-11-29T20:59:58.343Z,46.72
2018-11-29T21:00:58.333Z,46.20
2018-11-29T21:01:58.322Z,46.83
2018-11-29T21:02:58.305Z,47.03
2018-11-29T21:03:58.295Z,46.74
2018-11-29T21:04:58.291Z,46.83
2018-11-29T21:05:58.273Z,47.37
2018-11-29T21:06:58.267Z,47.24
2018-11-29T21:07:58.257Z,47.77
2018-11-29T21:08:58.241Z,47.55
2018-11-29T21:10:02.896Z,47.55
2018-11-29T21:10:58.229Z,47.66
2018-11-29T21:11:58.209Z,47.27
2018-11-29T21:12:58.202Z,47.55
2018-11-29T21:13:58.188Z,47.47
2018-11-29T21:14:58.177Z,47.34
2018-11-29T21:15:58.164Z,46.95
2018-11-29T21:16:58.158Z,47.03
2018-11-29T21:17:58.142Z,47.87
2018-11-29T21:18:58.137Z,47.03
2018-11-29T21:19:58.122Z,47.99
2018-11-29T21:20:58.115Z,48.10
2018-11-29T21:21:58.102Z,48.08
2018-11-29T21:22:58.100Z,47.89
2018-11-29T21:23:58.084Z,48.41
2018-11-29T21:24:58.066Z,47.47
2018-11-29T21:25:58.063Z,47.99
2018-11-29T21:26:58.051Z,48.10
2018-11-29T21:27:58.049Z,48.41
2018-11-29T21:28:58.027Z,48.52
2018-11-29T21:29:58.018Z,47.89
2018-11-29T21:30:58.007Z,48.10
2018-11-29T21:31:58.000Z,47.99
2018-11-29T21:32:57.981Z,48.41
2018-11-29T21:33:57.973Z,48.10
2018-11-29T21:34:57.962Z,47.99
2018-11-29T21:35:57.952Z,47.58
2018-11-29T21:36:57.935Z,48.21
2018-11-29T21:37:57.931Z,48.72
2018-11-29T21:38:57.922Z,48.21
2018-11-29T21:39:57.911Z,48.65
2018-11-29T21:40:57.898Z,48.94
2018-11-29T21:41:57.886Z,48.94
2018-11-29T21:42:57.872Z,48.44
2018-11-29T21:43:57.866Z,49.04
2018-11-29T21:44:57.859Z,49.04
2018-11-29T21:45:57.839Z,48.94
2018-11-29T21:46:57.828Z,48.33
2018-11-29T21:47:57.822Z,49.27
2018-11-29T21:48:57.806Z,48.83
2018-11-29T21:49:57.799Z,49.56
2018-11-29T21:50:57.784Z,48.52
2018-11-29T21:51:57.772Z,48.33
2018-11-29T21:52:57.767Z,49.06
2018-11-29T21:53:57.751Z,49.35
2018-11-29T21:54:57.740Z,49.77
2018-11-29T21:55:57.739Z,49.58
2018-11-29T21:56:57.725Z,49.90
2018-11-29T21:57:57.707Z,49.58
2018-11-29T21:58:57.702Z,49.90
2018-11-29T21:59:57.685Z,50.29
2018-11-29T22:00:57.681Z,49.38
2018-11-29T22:01:57.667Z,50.42
2018-11-29T22:02:57.654Z,50.32
2018-11-29T22:03:57.645Z,49.58
2018-11-29T22:04:57.637Z,49.58
2018-11-29T22:05:57.628Z,54.08
2018-11-29T22:06:57.615Z,57.62
2018-11-29T22:07:57.610Z,54.38
2018-11-29T22:08:57.589Z,51.86
2018-11-29T22:09:57.577Z,50.63
2018-11-29T22:10:57.566Z,49.25
2018-11-29T22:11:57.611Z,49.46
2018-11-29T22:12:57.543Z,49.35
2018-11-29T22:13:57.542Z,50.09
2018-11-29T22:14:57.527Z,49.56
2018-11-29T22:15:57.513Z,49.67
2018-11-29T22:16:57.537Z,50.09
2018-11-29T22:18:01.598Z,50.82
2018-11-29T22:18:57.524Z,49.98
2018-11-29T22:19:58.432Z,50.61
2018-11-29T22:20:57.462Z,50.29
2018-11-29T22:21:57.452Z,53.33
2018-11-29T22:22:57.436Z,55.73
2018-11-29T22:23:57.430Z,53.43
2018-11-29T22:24:57.434Z,51.03
2018-11-29T22:25:57.403Z,51.13
2018-11-29T22:26:57.392Z,51.03
2018-11-29T22:27:57.382Z,51.97
2018-11-29T22:29:00.704Z,51.55
2018-11-29T22:29:57.365Z,50.71
2018-11-29T22:30:57.356Z,50.61
2018-11-29T22:31:57.338Z,51.03
2018-11-29T22:32:57.327Z,51.26
2018-11-29T22:33:57.324Z,51.13
2018-11-29T22:34:57.307Z,50.71
2018-11-29T22:35:57.299Z,51.03
2018-11-29T22:36:57.294Z,51.34
2018-11-29T22:37:57.303Z,51.34
2018-11-29T22:38:57.265Z,50.71
2018-11-29T22:39:57.251Z,51.13
2018-11-29T22:40:57.245Z,51.13
2018-11-29T22:41:57.238Z,51.13
2018-11-29T22:42:57.224Z,51.13
2018-11-29T22:43:57.213Z,51.03
2018-11-29T22:44:57.201Z,51.24
2018-11-29T22:45:57.192Z,51.13
2018-11-29T22:46:57.175Z,51.13
2018-11-29T22:47:57.168Z,51.24
2018-11-29T22:48:57.153Z,50.82
2018-11-29T22:49:57.143Z,51.05
2018-11-29T22:50:57.135Z,51.13
2018-11-29T22:51:57.121Z,51.34
2018-11-29T22:52:57.144Z,51.03
2018-11-29T22:53:57.106Z,51.34
2018-11-29T22:54:57.093Z,51.03
2018-11-29T22:55:57.089Z,51.13
2018-11-29T22:56:57.071Z,51.13
2018-11-29T22:57:57.056Z,51.34
2018-11-29T22:58:57.052Z,51.34
2018-11-29T22:59:57.039Z,50.82
2018-11-29T23:00:57.029Z,51.34
2018-11-29T23:01:57.017Z,50.61
2018-11-29T23:02:57.006Z,50.29
2018-11-29T23:03:56.994Z,50.59
2018-11-29T23:04:56.982Z,51.55
2018-11-29T23:05:56.968Z,51.34
2018-11-29T23:06:56.963Z,50.61
2018-11-29T23:07:56.948Z,50.61
2018-11-29T23:08:56.941Z,50.61
2018-11-29T23:09:56.927Z,50.61
2018-11-29T23:10:56.919Z,50.51
2018-11-29T23:11:56.903Z,51.24
2018-11-29T23:12:56.893Z,50.51
2018-11-29T23:13:56.884Z,51.24
2018-11-29T23:14:56.876Z,50.09
2018-11-29T23:15:56.865Z,50.82
2018-11-29T23:16:56.852Z,50.69
2018-11-29T23:17:56.838Z,50.61
2018-11-29T23:18:56.834Z,51.03
2018-11-29T23:19:56.822Z,51.11
2018-11-29T23:20:56.811Z,51.32
2018-11-29T23:21:56.796Z,51.32
2018-11-29T23:22:56.784Z,51.65
2018-11-29T23:23:56.786Z,51.97
2018-11-29T23:24:56.762Z,52.36
2018-11-29T23:25:56.754Z,51.95
2018-11-29T23:26:56.741Z,51.01
2018-11-29T23:27:56.737Z,51.42
2018-11-29T23:28:56.724Z,51.21
2018-11-29T23:29:56.713Z,49.96
2018-11-29T23:30:56.697Z,50.27
2018-11-29T23:31:56.687Z,51.01
2018-11-29T23:32:56.687Z,50.38
2018-11-29T23:33:56.665Z,51.42
2018-11-29T23:34:56.658Z,51.01
2018-11-29T23:35:56.642Z,51.11
2018-11-29T23:36:56.636Z,51.34
2018-11-29T23:37:56.631Z,50.82
2018-11-29T23:38:56.622Z,50.90
2018-11-29T23:39:56.599Z,51.42
2018-11-29T23:40:56.594Z,51.11
2018-11-29T23:42:16.211Z,51.21
2018-11-29T23:43:37.647Z,50.69
2018-11-29T23:44:37.607Z,51.11
2018-11-29T23:45:37.602Z,51.24
2018-11-29T23:46:37.586Z,50.90
2018-11-29T23:47:37.582Z,52.39
2018-11-29T23:50:05.026Z,51.34
2018-11-29T23:51:24.633Z,51.11
2018-11-29T23:52:46.563Z,52.15
2018-11-29T23:54:06.147Z,51.45
2018-11-29T23:55:28.074Z,50.79
2018-11-29T23:56:28.049Z,51.42
2018-11-29T23:57:47.660Z,50.79
2018-11-29T23:59:09.590Z,50.90
